Terminal Aerodrome Forecast
Issued by NWS

Current Version | Previous Version | Graphics & Text | Print | Product List | Glossary On
Versions: 1 2 3 4 5 6 7 8 9 10 11 12 13 14 15 16 17 18 19 20 21 22 23 24 25 26 27 28 29 30 31 32
400
FTUS41 KRNK 180529
TAFLWB
TAF
KLWB 180529Z 1806/1906 00000KT 2SM BR OVC001
      TEMPO 1806/1808 1/2SM FG
     FM180800 VRB03KT 1/4SM FG OVC001
     FM181230 VRB03KT 1SM BR BKN008
     FM181400 25005KT P6SM BKN050
     FM181700 27007KT P6SM VCTS SCT025 BKN050CB
      TEMPO 1817/1819 3SM SHRA BKN025
     FM182100 28005KT P6SM BKN040=

USA.gov is the U.S. government's official web portal to all federal, state and local government web resources and services.